createdAt,value
2022-08-18T00:00:25.299Z,21.10
2022-08-18T00:01:40.805Z,21.11
2022-08-18T00:02:49.746Z,21.10
2022-08-18T00:04:14.784Z,21.11
2022-08-18T00:05:26.153Z,21.12
2022-08-18T00:06:29.910Z,21.12
2022-08-18T00:07:33.812Z,21.13
2022-08-18T00:08:38.493Z,21.13
2022-08-18T00:09:41.761Z,21.13
2022-08-18T00:10:43.576Z,21.13
2022-08-18T00:11:45.707Z,21.15
2022-08-18T00:12:47.480Z,21.15
2022-08-18T00:13:49.345Z,21.15
2022-08-18T00:14:52.581Z,21.15
2022-08-18T00:15:54.550Z,21.14
2022-08-18T00:16:56.409Z,21.13
2022-08-18T00:17:58.285Z,21.13
2022-08-18T00:19:00.298Z,21.12
2022-08-18T00:20:04.285Z,21.12
2022-08-18T00:21:06.068Z,21.12
2022-08-18T00:22:08.760Z,21.12
2022-08-18T00:23:16.515Z,21.11
2022-08-18T00:24:18.568Z,21.11
2022-08-18T00:25:20.729Z,21.11
2022-08-18T00:26:22.551Z,21.12
2022-08-18T00:27:30.572Z,21.13
2022-08-18T00:28:32.421Z,21.14
2022-08-18T00:29:34.114Z,21.16
2022-08-18T00:30:35.839Z,21.16
2022-08-18T00:31:37.563Z,21.17
2022-08-18T00:32:44.002Z,21.17
2022-08-18T00:33:45.702Z,21.18
2022-08-18T00:34:47.453Z,21.18
2022-08-18T00:35:49.962Z,21.17
2022-08-18T00:36:51.731Z,21.15
2022-08-18T00:37:56.112Z,21.15
2022-08-18T00:38:58.109Z,21.14
2022-08-18T00:40:01.359Z,21.12
2022-08-18T00:41:03.811Z,21.11
2022-08-18T00:42:28.840Z,21.11
2022-08-18T00:43:45.467Z,21.12
2022-08-18T00:44:47.197Z,21.14
2022-08-18T00:45:49.576Z,21.15
2022-08-18T00:46:51.291Z,21.16
2022-08-18T00:47:53.727Z,21.17
2022-08-18T00:48:56.632Z,21.16
2022-08-18T00:49:58.812Z,21.16
2022-08-18T00:51:08.789Z,21.16
2022-08-18T00:52:14.172Z,21.16
2022-08-18T00:53:33.391Z,21.14
2022-08-18T00:54:37.649Z,21.10
2022-08-18T00:55:43.768Z,21.10
2022-08-18T00:57:02.266Z,21.09
2022-08-18T00:58:15.892Z,21.07
2022-08-18T00:59:47.029Z,21.05
2022-08-18T01:00:51.432Z,21.04
2022-08-18T01:02:02.454Z,21.04
2022-08-18T01:03:12.687Z,21.04
2022-08-18T01:04:22.023Z,21.05
2022-08-18T01:05:41.196Z,21.04
2022-08-18T01:06:51.852Z,21.04
2022-08-18T01:07:53.924Z,21.03
2022-08-18T01:08:56.179Z,21.01
2022-08-18T01:10:01.499Z,21.01
2022-08-18T01:11:03.409Z,21.00
2022-08-18T01:12:44.118Z,21.00
2022-08-18T01:13:33.008Z,21.00
2022-08-18T01:14:34.797Z,20.99
2022-08-18T01:15:37.918Z,20.98
2022-08-18T01:16:58.204Z,20.99
2022-08-18T01:18:25.208Z,21.00
2022-08-18T01:19:46.877Z,21.02
2022-08-18T01:21:23.381Z,21.04
2022-08-18T01:22:49.906Z,21.04
2022-08-18T01:23:54.619Z,21.03
2022-08-18T01:25:19.728Z,21.02
2022-08-18T01:26:24.222Z,21.02
2022-08-18T01:27:27.059Z,21.01
2022-08-18T01:28:33.952Z,21.01
2022-08-18T01:29:41.485Z,21.01
2022-08-18T01:30:56.132Z,21.00
2022-08-18T01:31:57.826Z,21.01
2022-08-18T01:32:59.514Z,21.03
2022-08-18T01:34:01.955Z,21.03
2022-08-18T01:35:08.570Z,21.03
2022-08-18T01:36:20.918Z,21.05
2022-08-18T01:37:24.488Z,21.06
2022-08-18T01:38:26.783Z,21.07
2022-08-18T01:41:01.823Z,21.05
2022-08-18T01:41:24.575Z,21.06
2022-08-18T01:42:19.225Z,21.02
2022-08-18T01:43:21.399Z,21.01
2022-08-18T01:44:23.113Z,21.00
2022-08-18T01:45:24.868Z,20.99
2022-08-18T01:46:29.656Z,20.98
2022-08-18T01:47:47.789Z,20.97
2022-08-18T01:48:51.179Z,20.95
2022-08-18T01:49:53.348Z,20.95
2022-08-18T01:50:56.905Z,20.93
2022-08-18T01:51:58.579Z,20.91
2022-08-18T01:53:01.206Z,20.91
2022-08-18T01:54:05.220Z,20.91
2022-08-18T01:55:08.030Z,20.91
2022-08-18T01:56:09.846Z,20.90
2022-08-18T01:57:13.512Z,20.89
2022-08-18T01:58:15.238Z,20.88
2022-08-18T01:59:17.462Z,20.87
2022-08-18T02:00:19.352Z,20.87
2022-08-18T02:01:24.683Z,20.87
2022-08-18T02:02:39.677Z,20.88
2022-08-18T02:03:46.855Z,20.89
2022-08-18T02:04:50.263Z,20.88
2022-08-18T02:05:51.996Z,20.89
2022-08-18T02:06:55.995Z,20.89
2022-08-18T02:07:57.931Z,20.89
2022-08-18T02:08:59.711Z,20.90
2022-08-18T02:10:02.043Z,20.91
2022-08-18T02:11:05.370Z,20.91
2022-08-18T02:12:07.953Z,20.90
2022-08-18T02:13:10.118Z,20.89
2022-08-18T02:14:11.809Z,20.89
2022-08-18T02:15:13.594Z,20.88
2022-08-18T02:16:16.877Z,20.89
2022-08-18T02:17:19.082Z,20.89
2022-08-18T02:18:35.388Z,20.89
2022-08-18T02:19:48.016Z,20.90
2022-08-18T02:20:50.026Z,20.90
2022-08-18T02:21:53.210Z,20.90
2022-08-18T02:22:55.112Z,20.91
2022-08-18T02:23:56.863Z,20.90
2022-08-18T02:24:58.566Z,20.90
2022-08-18T02:26:05.823Z,20.90
2022-08-18T02:27:09.200Z,20.91
2022-08-18T02:28:11.717Z,20.90
2022-08-18T02:29:13.712Z,20.90
2022-08-18T02:30:19.107Z,20.90
2022-08-18T02:31:24.288Z,20.88
2022-08-18T02:32:26.796Z,20.87
2022-08-18T02:33:31.197Z,20.86
2022-08-18T02:34:33.515Z,20.87
2022-08-18T02:35:37.101Z,20.87
2022-08-18T02:36:39.592Z,20.87
2022-08-18T02:37:47.801Z,20.87
2022-08-18T02:38:54.767Z,20.88
2022-08-18T02:40:01.593Z,20.88
2022-08-18T02:41:06.967Z,20.87
2022-08-18T02:42:09.270Z,20.86
2022-08-18T02:43:11.004Z,20.85
2022-08-18T02:44:12.719Z,20.83
2022-08-18T02:45:14.906Z,20.81
2022-08-18T02:46:16.654Z,20.79
2022-08-18T02:47:22.335Z,20.77
2022-08-18T02:48:36.009Z,20.75
2022-08-18T02:49:37.864Z,20.72
2022-08-18T02:50:48.834Z,20.70
2022-08-18T02:51:52.848Z,20.67
2022-08-18T02:52:54.846Z,20.64
2022-08-18T02:53:59.312Z,20.62
2022-08-18T02:55:02.917Z,20.61
2022-08-18T02:56:39.954Z,20.57
2022-08-18T02:57:48.899Z,20.54
2022-08-18T02:58:59.547Z,20.51
2022-08-18T03:00:01.252Z,20.50
2022-08-18T03:01:03.066Z,20.47
2022-08-18T03:02:07.465Z,20.44
2022-08-18T03:03:09.252Z,20.42
2022-08-18T03:04:14.370Z,20.40
2022-08-18T03:05:17.128Z,20.38
2022-08-18T03:06:21.167Z,20.37
2022-08-18T03:07:22.880Z,20.36
2022-08-18T03:08:24.648Z,20.36
2022-08-18T03:09:27.264Z,20.36
2022-08-18T03:10:33.200Z,20.36
2022-08-18T03:11:37.349Z,20.36
2022-08-18T03:12:39.108Z,20.36
2022-08-18T03:13:40.846Z,20.34
2022-08-18T03:14:43.599Z,20.33
2022-08-18T03:15:45.328Z,20.32
2022-08-18T03:16:53.578Z,20.31
2022-08-18T03:17:56.361Z,20.30
2022-08-18T03:18:59.244Z,20.31
2022-08-18T03:20:01.059Z,20.32
2022-08-18T03:21:07.717Z,20.33
2022-08-18T03:22:27.801Z,20.33
2022-08-18T03:23:31.416Z,20.36
2022-08-18T03:24:33.306Z,20.38
2022-08-18T03:25:35.071Z,20.40
2022-08-18T03:26:42.766Z,20.41
2022-08-18T03:27:44.485Z,20.44
2022-08-18T03:28:49.790Z,20.45
2022-08-18T03:29:51.762Z,20.46
2022-08-18T03:30:53.406Z,20.47
2022-08-18T03:31:55.443Z,20.48
2022-08-18T03:32:57.858Z,20.47
2022-08-18T03:34:01.575Z,20.46
2022-08-18T03:35:04.260Z,20.45
2022-08-18T03:36:12.196Z,20.44
2022-08-18T03:37:16.032Z,20.42
2022-08-18T03:38:17.801Z,20.41
2022-08-18T03:39:22.963Z,20.40
2022-08-18T03:40:24.733Z,20.38
2022-08-18T03:41:43.954Z,20.36
2022-08-18T03:42:50.776Z,20.34
2022-08-18T03:43:53.169Z,20.33
2022-08-18T03:44:54.908Z,20.31
2022-08-18T03:46:01.513Z,20.30
2022-08-18T03:47:04.063Z,20.28
2022-08-18T03:48:05.861Z,20.26
2022-08-18T03:49:08.039Z,20.24
2022-08-18T03:50:09.921Z,20.22
2022-08-18T03:51:17.760Z,20.20
2022-08-18T03:52:19.964Z,20.18
2022-08-18T03:53:21.788Z,20.16
2022-08-18T03:54:23.517Z,20.17
2022-08-18T03:55:29.221Z,20.15
2022-08-18T03:56:36.328Z,20.15
2022-08-18T03:57:38.907Z,20.15
2022-08-18T03:58:41.246Z,20.14
2022-08-18T03:59:43.547Z,20.14
2022-08-18T04:00:45.196Z,20.13
2022-08-18T04:01:49.304Z,20.13
2022-08-18T04:02:51.726Z,20.13
2022-08-18T04:04:01.661Z,20.13
2022-08-18T04:05:05.435Z,20.13
2022-08-18T04:06:12.099Z,20.12
2022-08-18T04:07:17.353Z,20.13
2022-08-18T04:08:19.156Z,20.15
2022-08-18T04:09:24.738Z,20.16
2022-08-18T04:10:26.681Z,20.16
2022-08-18T04:11:28.656Z,20.17
2022-08-18T04:12:38.578Z,20.20
2022-08-18T04:13:41.464Z,20.23
2022-08-18T04:14:47.739Z,20.26
2022-08-18T04:15:49.557Z,20.30
2022-08-18T04:16:52.333Z,20.34
2022-08-18T04:18:03.285Z,20.37
2022-08-18T04:19:06.628Z,20.41
2022-08-18T04:20:08.911Z,20.45
2022-08-18T04:21:13.721Z,20.47
2022-08-18T04:22:17.134Z,20.48
2022-08-18T04:23:19.534Z,20.51
2022-08-18T04:24:21.372Z,20.54
2022-08-18T04:25:23.123Z,20.55
2022-08-18T04:26:24.879Z,20.57
2022-08-18T04:27:28.889Z,20.59
2022-08-18T04:28:31.439Z,20.61
2022-08-18T04:29:33.199Z,20.61
2022-08-18T04:30:36.133Z,20.63
2022-08-18T04:31:38.090Z,20.66
2022-08-18T04:32:39.919Z,20.68
2022-08-18T04:33:42.317Z,20.70
2022-08-18T04:34:44.474Z,20.73
2022-08-18T04:35:46.996Z,20.76
2022-08-18T04:36:51.381Z,20.79
2022-08-18T04:37:53.188Z,20.82
2022-08-18T04:38:56.617Z,20.84
2022-08-18T04:39:59.815Z,20.87
2022-08-18T04:41:01.682Z,20.89
2022-08-18T04:42:04.972Z,20.90
2022-08-18T04:43:06.986Z,20.89
2022-08-18T04:44:10.668Z,20.90
2022-08-18T04:45:13.213Z,20.92
2022-08-18T04:46:14.967Z,20.92
2022-08-18T04:47:16.842Z,20.92
2022-08-18T04:48:18.656Z,20.93
2022-08-18T04:49:26.088Z,20.95
2022-08-18T04:50:28.087Z,20.97
2022-08-18T04:52:36.669Z,20.99
2022-08-18T04:53:12.333Z,21.01
2022-08-18T04:54:14.028Z,21.01
2022-08-18T04:55:15.789Z,21.03
2022-08-18T04:56:27.660Z,21.04
2022-08-18T04:57:33.097Z,21.06
2022-08-18T04:58:36.402Z,21.06
2022-08-18T04:59:40.288Z,21.07
2022-08-18T05:00:44.147Z,21.08
2022-08-18T05:01:47.921Z,21.09
2022-08-18T05:02:49.926Z,21.12
2022-08-18T05:03:53.900Z,21.16
2022-08-18T05:04:55.640Z,21.19
2022-08-18T05:05:59.846Z,21.21
2022-08-18T05:07:01.607Z,21.23
2022-08-18T05:08:03.673Z,21.25
2022-08-18T05:09:08.937Z,21.27
2022-08-18T05:10:12.495Z,21.28
2022-08-18T05:11:15.526Z,21.30
2022-08-18T05:12:17.658Z,21.31
2022-08-18T05:13:22.101Z,21.34
2022-08-18T05:14:24.775Z,21.35
2022-08-18T05:15:26.497Z,21.36
2022-08-18T05:16:32.792Z,21.38
2022-08-18T05:17:39.559Z,21.40
2022-08-18T05:18:42.760Z,21.43
2022-08-18T05:19:45.800Z,21.46
2022-08-18T05:20:49.565Z,21.49
2022-08-18T05:21:53.451Z,21.51
2022-08-18T05:23:01.558Z,21.56
2022-08-18T05:24:05.669Z,21.61
2022-08-18T05:25:12.317Z,21.64
2022-08-18T05:26:15.651Z,21.67
2022-08-18T05:27:17.336Z,21.71
2022-08-18T05:28:19.452Z,21.72
2022-08-18T05:29:21.962Z,21.77
2022-08-18T05:30:25.609Z,21.80
2022-08-18T05:31:29.086Z,21.83
2022-08-18T05:32:48.176Z,21.87
2022-08-18T05:33:53.108Z,21.91
2022-08-18T05:34:54.937Z,21.94
2022-08-18T05:36:03.856Z,21.98
2022-08-18T05:37:21.143Z,22.03
2022-08-18T05:38:42.527Z,22.09
2022-08-18T05:40:08.903Z,22.15
2022-08-18T05:41:26.187Z,22.21
2022-08-18T05:42:35.337Z,22.28
2022-08-18T05:43:41.627Z,22.34
2022-08-18T05:44:55.956Z,22.41
2022-08-18T05:46:02.615Z,22.48
2022-08-18T05:47:32.224Z,22.55
2022-08-18T05:48:39.767Z,22.63
2022-08-18T05:49:49.125Z,22.68
2022-08-18T05:50:51.291Z,22.71
2022-08-18T05:52:13.970Z,22.73
2022-08-18T05:53:40.983Z,22.76
2022-08-18T05:55:11.086Z,22.83
2022-08-18T05:56:32.451Z,22.88
2022-08-18T05:57:47.187Z,22.93
2022-08-18T05:58:55.780Z,22.95
2022-08-18T05:59:58.838Z,22.97
2022-08-18T06:01:22.910Z,23.00
2022-08-18T06:02:39.465Z,23.02
2022-08-18T06:03:52.811Z,23.04
2022-08-18T06:05:05.939Z,23.07
2022-08-18T06:06:14.229Z,23.08
2022-08-18T06:07:25.949Z,23.12
2022-08-18T06:08:44.879Z,23.14
2022-08-18T06:09:54.954Z,23.16
2022-08-18T06:10:56.928Z,23.19
2022-08-18T06:12:20.865Z,23.24
2022-08-18T06:13:22.893Z,23.27
2022-08-18T06:14:25.310Z,23.33
2022-08-18T06:15:54.604Z,23.37
2022-08-18T06:17:13.251Z,23.38
2022-08-18T06:18:30.049Z,23.41
2022-08-18T06:19:43.897Z,23.43
2022-08-18T06:21:12.915Z,23.46
2022-08-18T06:22:36.261Z,23.50
2022-08-18T06:24:12.428Z,23.57
2022-08-18T06:25:34.690Z,23.63
2022-08-18T06:27:00.378Z,23.71
2022-08-18T06:28:14.151Z,23.81
2022-08-18T06:29:37.380Z,23.87
2022-08-18T06:30:41.683Z,23.91
2022-08-18T06:32:14.454Z,23.92
2022-08-18T06:34:00.697Z,23.94
2022-08-18T06:35:18.414Z,23.99
2022-08-18T06:36:45.354Z,24.03
2022-08-18T06:38:38.475Z,24.09
2022-08-18T06:39:50.565Z,24.12
2022-08-18T06:41:41.764Z,24.14
2022-08-18T06:42:36.575Z,24.17
2022-08-18T06:44:03.246Z,24.17
2022-08-18T06:45:14.095Z,24.22
2022-08-18T06:46:23.985Z,24.28
2022-08-18T06:47:44.619Z,24.33
2022-08-18T06:48:55.138Z,24.41
2022-08-18T06:50:15.380Z,24.47
2022-08-18T06:51:21.750Z,24.52
2022-08-18T06:52:34.308Z,24.57
2022-08-18T06:54:00.247Z,24.63
2022-08-18T06:55:11.553Z,24.72
2022-08-18T06:56:25.798Z,24.75
2022-08-18T06:57:33.527Z,24.75
2022-08-18T06:58:35.569Z,24.78
2022-08-18T06:59:38.468Z,24.82
2022-08-18T07:01:07.913Z,24.87
2022-08-18T07:02:27.664Z,24.91
2022-08-18T07:03:35.400Z,24.98
2022-08-18T07:04:40.173Z,25.03
2022-08-18T07:06:02.763Z,25.07
2022-08-18T07:07:15.627Z,25.15
2022-08-18T07:08:35.641Z,25.24
2022-08-18T07:09:40.557Z,25.30
2022-08-18T07:10:51.440Z,25.34
2022-08-18T07:12:08.795Z,25.38
2022-08-18T07:13:13.070Z,25.40
2022-08-18T07:14:24.426Z,25.40
2022-08-18T07:15:26.185Z,25.40
2022-08-18T07:16:54.445Z,25.41
2022-08-18T07:17:49.487Z,25.44
2022-08-18T07:18:52.584Z,25.46
2022-08-18T07:20:01.465Z,25.46
2022-08-18T07:21:03.197Z,25.44
2022-08-18T07:22:14.517Z,25.46
2022-08-18T07:23:39.180Z,25.47
2022-08-18T07:24:45.251Z,25.51
2022-08-18T07:25:58.401Z,25.52
2022-08-18T07:27:17.579Z,25.55
2022-08-18T07:28:47.644Z,25.62
2022-08-18T07:30:30.037Z,25.72
2022-08-18T07:31:46.516Z,25.80
2022-08-18T07:33:12.592Z,25.84
2022-08-18T07:34:27.466Z,25.85
2022-08-18T07:35:45.791Z,25.86
2022-08-18T07:37:09.512Z,25.89
2022-08-18T07:38:45.605Z,25.98
2022-08-18T07:40:18.118Z,26.07
2022-08-18T07:41:31.877Z,26.15
2022-08-18T07:43:00.708Z,26.22
2022-08-18T07:44:45.454Z,26.25
2022-08-18T07:45:48.020Z,26.27
2022-08-18T07:47:18.207Z,26.28
2022-08-18T07:48:38.234Z,26.32
2022-08-18T07:50:13.626Z,26.33
2022-08-18T07:51:13.724Z,26.36
2022-08-18T07:52:36.648Z,26.38
2022-08-18T07:54:44.941Z,26.42
2022-08-18T07:55:37.133Z,26.49
2022-08-18T07:56:57.515Z,26.52
2022-08-18T07:58:25.062Z,26.55
2022-08-18T07:59:39.689Z,26.61
2022-08-18T08:00:58.611Z,26.66
2022-08-18T08:02:28.596Z,26.72
2022-08-18T08:03:51.884Z,26.78
2022-08-18T08:05:30.975Z,26.80
2022-08-18T08:06:41.346Z,26.82
2022-08-18T08:08:10.265Z,26.85
2022-08-18T08:09:24.434Z,26.87
2022-08-18T08:10:55.037Z,26.89
2022-08-18T08:12:14.453Z,26.91
2022-08-18T08:13:54.693Z,26.93
2022-08-18T08:15:17.678Z,26.92
2022-08-18T08:16:47.314Z,26.89
2022-08-18T08:18:25.395Z,26.87
2022-08-18T08:19:59.473Z,26.90
2022-08-18T08:21:20.092Z,26.94
2022-08-18T08:22:36.276Z,26.99
2022-08-18T08:23:54.500Z,27.06
2022-08-18T08:25:45.296Z,27.14
2022-08-18T08:27:18.356Z,27.23
2022-08-18T08:28:41.638Z,27.32
2022-08-18T08:30:08.940Z,27.27
2022-08-18T08:31:43.252Z,27.10
2022-08-18T08:33:06.562Z,26.92
2022-08-18T08:34:41.647Z,26.86
2022-08-18T08:35:58.921Z,26.87
2022-08-18T08:37:04.491Z,26.92
2022-08-18T08:38:39.293Z,26.91
2022-08-18T08:39:58.010Z,26.99
2022-08-18T08:41:07.285Z,27.06
2022-08-18T08:42:37.450Z,27.13
2022-08-18T08:43:53.689Z,27.25
2022-08-18T08:45:01.258Z,27.36
2022-08-18T08:46:11.333Z,27.42
2022-08-18T08:47:24.551Z,27.45
2022-08-18T08:48:35.652Z,27.44
2022-08-18T08:49:46.095Z,27.42
2022-08-18T08:51:04.077Z,27.45
2022-08-18T08:52:23.201Z,27.52
2022-08-18T08:53:36.438Z,27.62
2022-08-18T08:54:50.222Z,27.71
2022-08-18T08:56:02.737Z,27.79
2022-08-18T08:57:07.144Z,27.80
2022-08-18T08:58:33.772Z,27.79
2022-08-18T08:59:39.539Z,27.85
2022-08-18T09:00:43.587Z,27.93
2022-08-18T09:02:08.014Z,28.00
2022-08-18T09:03:42.735Z,28.11
2022-08-18T09:04:54.718Z,28.15
2022-08-18T09:06:32.030Z,28.07
2022-08-18T09:07:51.670Z,28.09
2022-08-18T09:09:05.194Z,28.03
2022-08-18T09:10:28.441Z,27.96
2022-08-18T09:11:45.526Z,27.93
2022-08-18T09:13:05.411Z,27.95
2022-08-18T09:14:39.112Z,28.01
2022-08-18T09:16:18.513Z,28.04
2022-08-18T09:17:50.838Z,28.12
2022-08-18T09:19:12.883Z,28.28
2022-08-18T09:20:33.076Z,28.39
2022-08-18T09:21:46.815Z,28.51
2022-08-18T09:22:56.289Z,28.63
2022-08-18T09:24:20.918Z,28.73
2022-08-18T09:25:43.849Z,28.82
2022-08-18T09:27:14.221Z,28.86
2022-08-18T09:28:25.991Z,28.94
2022-08-18T09:30:01.970Z,29.00
2022-08-18T09:31:08.561Z,29.13
2022-08-18T09:32:20.016Z,29.21
2022-08-18T09:33:44.434Z,29.28
2022-08-18T09:35:17.160Z,29.35
2022-08-18T09:36:31.120Z,29.41
2022-08-18T09:39:56.532Z,29.51
2022-08-18T09:41:27.244Z,29.52
2022-08-18T09:44:21.587Z,29.54
2022-08-18T09:45:34.451Z,29.63
2022-08-18T09:46:47.947Z,29.70
2022-08-18T09:47:52.878Z,29.72
2022-08-18T09:49:26.769Z,29.68
2022-08-18T09:50:28.478Z,29.56
2022-08-18T09:51:39.928Z,29.51
2022-08-18T09:52:42.672Z,29.51
2022-08-18T09:53:46.066Z,29.49
2022-08-18T09:54:59.544Z,29.46
2022-08-18T09:56:05.177Z,29.45
2022-08-18T09:57:19.661Z,29.51
2022-08-18T09:58:26.190Z,29.59
2022-08-18T09:59:34.283Z,29.67
2022-08-18T10:00:36.465Z,29.61
2022-08-18T10:01:41.939Z,29.55
2022-08-18T10:02:47.617Z,29.57
2022-08-18T10:04:15.091Z,29.66
2022-08-18T10:05:22.570Z,29.71
2022-08-18T10:06:28.020Z,29.75
2022-08-18T10:07:41.883Z,29.79
2022-08-18T10:09:02.678Z,29.77
2022-08-18T10:11:00.897Z,29.77
2022-08-18T10:11:59.868Z,29.88
2022-08-18T10:13:24.743Z,29.99
2022-08-18T10:14:55.641Z,30.06
2022-08-18T10:16:21.372Z,30.14
2022-08-18T10:17:51.076Z,30.25
2022-08-18T10:19:33.949Z,30.34
2022-08-18T10:20:56.452Z,30.31
2022-08-18T10:22:01.458Z,30.35
2022-08-18T10:23:04.644Z,30.39
2022-08-18T10:25:46.475Z,30.47
2022-08-18T10:26:54.030Z,30.47
2022-08-18T10:27:57.738Z,30.50
2022-08-18T10:29:07.930Z,30.52
2022-08-18T10:30:31.056Z,30.52
2022-08-18T10:31:57.856Z,30.54
2022-08-18T10:33:18.025Z,30.52
2022-08-18T10:34:52.392Z,30.55
2022-08-18T10:35:59.638Z,30.66
2022-08-18T10:37:06.315Z,30.74
2022-08-18T10:38:22.855Z,30.82
2022-08-18T10:39:46.535Z,30.89
2022-08-18T10:41:09.415Z,30.91
2022-08-18T10:42:35.986Z,30.96
2022-08-18T10:43:57.645Z,31.05
2022-08-18T10:45:10.498Z,31.13
2022-08-18T10:46:25.005Z,31.16
2022-08-18T10:47:33.486Z,31.18
2022-08-18T10:48:35.747Z,31.25
2022-08-18T10:49:49.289Z,31.32
2022-08-18T10:51:59.537Z,31.41
2022-08-18T10:55:16.638Z,31.21
2022-08-18T10:56:49.942Z,30.83
2022-08-18T10:58:09.609Z,30.55
2022-08-18T10:59:47.677Z,30.56
2022-08-18T11:01:20.551Z,30.58
2022-08-18T11:02:48.967Z,30.61
2022-08-18T11:04:14.098Z,30.70
2022-08-18T11:05:24.710Z,30.80
2022-08-18T11:06:27.821Z,30.89
2022-08-18T11:07:34.412Z,30.95
2022-08-18T11:08:45.075Z,30.86
2022-08-18T11:10:04.458Z,30.68
2022-08-18T11:11:37.189Z,30.55
2022-08-18T11:12:52.904Z,30.38
2022-08-18T11:14:08.661Z,30.21
2022-08-18T11:15:23.615Z,30.12
2022-08-18T11:16:43.886Z,30.25
2022-08-18T11:18:14.774Z,30.47
2022-08-18T11:19:20.283Z,30.82
2022-08-18T11:20:31.479Z,31.09
2022-08-18T11:21:43.404Z,31.40
2022-08-18T11:22:56.372Z,31.63
2022-08-18T11:24:07.702Z,31.56
2022-08-18T11:25:29.881Z,31.37
2022-08-18T11:26:35.511Z,31.14
2022-08-18T11:27:47.403Z,30.97
2022-08-18T11:28:50.126Z,30.96
2022-08-18T11:29:58.828Z,31.04
2022-08-18T11:31:01.067Z,31.22
2022-08-18T11:33:31.150Z,31.32
2022-08-18T11:36:08.461Z,30.99
2022-08-18T11:37:27.776Z,30.80
2022-08-18T11:38:31.612Z,30.78
2022-08-18T11:39:49.233Z,30.99
2022-08-18T11:41:13.571Z,31.27
2022-08-18T11:42:24.960Z,31.56
2022-08-18T11:43:41.513Z,31.82
2022-08-18T11:44:45.824Z,32.08
2022-08-18T11:46:16.431Z,32.23
2022-08-18T11:48:52.714Z,32.63
2022-08-18T11:50:12.504Z,32.72
2022-08-18T11:51:27.197Z,32.84
2022-08-18T11:53:58.921Z,33.28
2022-08-18T11:56:38.215Z,33.79
2022-08-18T11:57:54.496Z,33.92
2022-08-18T11:59:09.480Z,33.69
2022-08-18T12:00:42.831Z,33.40
2022-08-18T12:01:52.004Z,33.05
2022-08-18T12:03:08.695Z,32.80
2022-08-18T12:04:13.449Z,32.52
2022-08-18T12:05:15.234Z,32.52
2022-08-18T12:06:32.148Z,32.67
2022-08-18T12:07:35.887Z,32.88
2022-08-18T12:08:57.036Z,33.10
2022-08-18T12:10:26.296Z,33.40
2022-08-18T12:11:48.738Z,33.71
2022-08-18T12:12:54.051Z,33.94
2022-08-18T12:14:31.865Z,34.03
2022-08-18T12:15:43.472Z,34.15
2022-08-18T12:16:50.210Z,34.30
2022-08-18T12:17:53.795Z,34.42
2022-08-18T12:18:55.739Z,34.57
2022-08-18T12:19:59.741Z,34.72
2022-08-18T12:21:02.823Z,34.86
2022-08-18T12:22:17.620Z,34.98
2022-08-18T12:23:19.391Z,35.12
2022-08-18T12:24:36.760Z,35.20
2022-08-18T12:25:51.808Z,35.30
2022-08-18T12:26:54.478Z,35.33
2022-08-18T12:27:57.695Z,35.37
2022-08-18T12:30:21.297Z,35.49
2022-08-18T12:31:22.946Z,35.56
2022-08-18T12:32:49.491Z,35.59
2022-08-18T12:34:00.708Z,35.59
2022-08-18T12:35:09.317Z,35.61
2022-08-18T12:36:12.188Z,35.68
2022-08-18T12:37:58.377Z,35.76
2022-08-18T12:38:52.197Z,35.75
2022-08-18T12:39:59.640Z,35.69
2022-08-18T12:41:01.665Z,35.60
2022-08-18T12:42:04.983Z,35.28
2022-08-18T12:43:08.073Z,34.96
2022-08-18T12:44:13.177Z,34.68
2022-08-18T12:45:15.652Z,34.38
2022-08-18T12:46:18.256Z,34.13
2022-08-18T12:47:25.682Z,33.89
2022-08-18T12:48:32.846Z,33.56
2022-08-18T12:49:36.147Z,33.22
2022-08-18T12:50:54.523Z,32.95
2022-08-18T12:52:00.402Z,32.81
2022-08-18T12:53:05.805Z,33.00
2022-08-18T12:54:10.554Z,33.28
2022-08-18T12:56:36.422Z,34.17
2022-08-18T12:57:53.391Z,34.50
2022-08-18T12:58:56.954Z,34.83
2022-08-18T12:59:59.334Z,35.08
2022-08-18T13:01:01.469Z,35.36
2022-08-18T13:02:05.928Z,35.53
2022-08-18T13:03:08.588Z,35.62
2022-08-18T13:04:12.876Z,35.66
2022-08-18T13:05:15.459Z,35.51
2022-08-18T13:06:17.654Z,35.18
2022-08-18T13:07:20.560Z,34.83
2022-08-18T13:08:30.731Z,34.50
2022-08-18T13:09:52.770Z,34.22
2022-08-18T13:10:58.227Z,33.92
2022-08-18T13:12:00.367Z,33.92
2022-08-18T13:13:02.140Z,34.11
2022-08-18T13:14:08.984Z,34.41
2022-08-18T13:15:11.343Z,34.78
2022-08-18T13:16:16.502Z,35.12
2022-08-18T13:17:34.322Z,35.45
2022-08-18T13:18:37.621Z,35.68
2022-08-18T13:19:39.433Z,35.93
2022-08-18T13:20:45.225Z,36.14
2022-08-18T13:21:47.750Z,36.29
2022-08-18T13:22:51.528Z,36.45
2022-08-18T13:23:55.108Z,36.58
2022-08-18T13:24:56.814Z,36.63
2022-08-18T13:26:03.225Z,36.64
2022-08-18T13:27:18.467Z,36.67
2022-08-18T13:28:24.628Z,36.76
2022-08-18T13:29:32.183Z,36.82
2022-08-18T13:30:35.581Z,36.87
2022-08-18T13:31:38.638Z,36.87
2022-08-18T13:32:43.783Z,36.79
2022-08-18T13:34:00.667Z,36.74
2022-08-18T13:35:08.971Z,36.67
2022-08-18T13:36:15.091Z,36.68
2022-08-18T13:37:16.750Z,36.76
2022-08-18T13:38:27.221Z,36.76
2022-08-18T13:39:31.364Z,36.74
2022-08-18T13:40:38.048Z,36.60
2022-08-18T13:41:52.092Z,36.66
2022-08-18T13:42:54.418Z,36.58
2022-08-18T13:43:58.816Z,36.35
2022-08-18T13:45:25.367Z,36.04
2022-08-18T13:46:30.930Z,35.89
2022-08-18T13:47:38.073Z,35.96
2022-08-18T13:48:41.675Z,36.19
2022-08-18T13:49:43.547Z,36.51
2022-08-18T13:51:02.010Z,36.89
2022-08-18T13:52:12.224Z,37.04
2022-08-18T13:53:29.883Z,37.20
2022-08-18T13:54:35.271Z,37.41
2022-08-18T13:55:37.057Z,37.50
2022-08-18T13:56:39.794Z,37.58
2022-08-18T13:57:50.290Z,37.65
2022-08-18T13:58:55.352Z,37.85
2022-08-18T13:59:57.532Z,38.01
2022-08-18T14:01:39.777Z,38.16
2022-08-18T14:02:26.813Z,38.34
2022-08-18T14:03:42.321Z,38.44
2022-08-18T14:04:49.325Z,38.59
2022-08-18T14:06:01.059Z,38.70
2022-08-18T14:07:09.613Z,38.81
2022-08-18T14:08:19.235Z,38.82
2022-08-18T14:09:27.756Z,38.75
2022-08-18T14:10:38.467Z,38.77
2022-08-18T14:11:41.831Z,38.83
2022-08-18T14:12:45.800Z,38.80
2022-08-18T14:13:48.864Z,38.73
2022-08-18T14:14:55.577Z,38.67
2022-08-18T14:15:59.423Z,38.65
2022-08-18T14:17:01.415Z,38.66
2022-08-18T14:18:05.986Z,38.65
2022-08-18T14:19:26.217Z,38.67
2022-08-18T14:20:49.188Z,38.68
2022-08-18T14:22:13.508Z,38.84
2022-08-18T14:23:34.893Z,39.05
2022-08-18T14:25:00.533Z,39.14
2022-08-18T14:26:20.699Z,39.09
2022-08-18T14:27:35.058Z,39.05
2022-08-18T14:28:38.418Z,39.06
2022-08-18T14:29:46.770Z,39.05
2022-08-18T14:30:54.196Z,39.05
2022-08-18T14:31:57.265Z,39.11
2022-08-18T14:32:59.421Z,39.20
2022-08-18T14:34:04.147Z,39.33
2022-08-18T14:35:32.014Z,39.48
2022-08-18T14:36:31.421Z,39.60
2022-08-18T14:37:33.795Z,39.56
2022-08-18T14:38:36.573Z,39.44
2022-08-18T14:39:40.271Z,39.38
2022-08-18T14:40:45.077Z,39.43
2022-08-18T14:41:49.541Z,39.55
2022-08-18T14:42:57.922Z,39.60
2022-08-18T14:44:12.187Z,39.60
2022-08-18T14:45:26.407Z,39.61
2022-08-18T14:46:35.861Z,39.55
2022-08-18T14:47:37.548Z,39.44
2022-08-18T14:48:42.547Z,39.34
2022-08-18T14:49:49.606Z,39.15
2022-08-18T14:50:55.452Z,38.96
2022-08-18T14:51:59.015Z,38.83
2022-08-18T14:53:00.711Z,38.73
2022-08-18T14:54:03.013Z,38.70
2022-08-18T14:55:05.199Z,38.76
2022-08-18T14:56:09.255Z,38.80
2022-08-18T14:57:12.082Z,38.78
2022-08-18T14:58:14.402Z,38.79
2022-08-18T14:59:20.467Z,38.86
2022-08-18T15:00:22.853Z,38.96
2022-08-18T15:01:26.721Z,39.06
2022-08-18T15:02:28.728Z,39.10
2022-08-18T15:03:31.867Z,39.15
2022-08-18T15:04:33.867Z,39.22
2022-08-18T15:05:40.329Z,39.38
2022-08-18T15:06:44.091Z,39.50
2022-08-18T15:07:58.881Z,39.60
2022-08-18T15:09:00.544Z,39.69
2022-08-18T15:10:14.952Z,39.79
2022-08-18T15:11:19.357Z,39.91
2022-08-18T15:12:26.646Z,39.95
2022-08-18T15:13:28.633Z,39.95
2022-08-18T15:14:32.961Z,39.90
2022-08-18T15:15:50.615Z,39.77
2022-08-18T15:16:52.943Z,39.59
2022-08-18T15:17:54.617Z,39.50
2022-08-18T15:18:58.483Z,39.37
2022-08-18T15:20:01.219Z,39.24
2022-08-18T15:21:35.567Z,39.12
2022-08-18T15:23:01.974Z,38.94
2022-08-18T15:24:25.813Z,38.94
2022-08-18T15:26:02.434Z,39.01
2022-08-18T15:27:10.413Z,38.95
2022-08-18T15:28:23.765Z,38.80